Time;durP1;ratioP1;P1;durP2;ratioP2;P2;SDS_P1;SDS_P2;PMS_P1;PMS_P2;Temp;Humidity;BMP_temperature;BMP_pressure;BME280_temperature;BME280_humidity;BME280_pressure;Samples;Min_cycle;Max_cycle;Signal;HPM_P1;HPM_P2
2022/05/25 00:15:53;;;;;;;26.60;13.63;;;;;;;;;;10442426;28;20108;-68
2022/05/25 00:20:56;;;;;;;24.15;13.80;;;;;;;;;;10425749;28;20252;-68
2022/05/25 00:25:58;;;;;;;23.23;14.02;;;;;;;;;;10430102;28;20107;-68
2022/05/25 00:31:01;;;;;;;21.02;12.63;;;;;;;;;;10433909;28;20111;-68
2022/05/25 00:36:04;;;;;;;20.07;12.37;;;;;;;;;;10431381;28;20061;-68
2022/05/25 00:41:07;;;;;;;20.98;12.18;;;;;;;;;;10432802;28;20061;-68
2022/05/25 00:46:17;;;;;;;19.85;11.40;;;;;;;;;;10431362;28;20045;-68
2022/05/25 00:51:24;;;;;;;16.85;10.95;;;;;;;;;;10445718;28;20049;-67
2022/05/25 00:56:29;;;;;;;18.45;10.15;;;;;;;;;;10430661;28;20045;-68
2022/05/25 01:01:34;;;;;;;15.48;10.38;;;;;;;;;;10431342;28;20057;-68
2022/05/25 01:06:54;;;;;;;17.80;10.77;;;;;;;;;;10431915;28;20058;-68
2022/05/25 01:12:11;;;;;;;14.48;9.40;;;;;;;;;;10432097;28;20080;-68
2022/05/25 01:17:26;;;;;;;17.75;9.23;;;;;;;;;;10433313;28;20065;-67
2022/05/25 01:23:04;;;;;;;15.07;7.88;;;;;;;;;;10443032;28;20057;-67
2022/05/25 01:28:14;;;;;;;13.38;8.35;;;;;;;;;;10408643;28;20221;-67
2022/05/25 01:33:24;;;;;;;22.92;8.02;;;;;;;;;;10444439;28;20041;-68
2022/05/25 01:38:34;;;;;;;11.15;7.38;;;;;;;;;;10436884;28;20057;-69
2022/05/25 01:43:42;;;;;;;13.52;6.90;;;;;;;;;;10438725;28;20065;-68
2022/05/25 01:48:48;;;;;;;10.02;6.60;;;;;;;;;;10440447;28;20053;-68
2022/05/25 01:53:56;;;;;;;13.43;7.22;;;;;;;;;;10438523;28;20041;-68
2022/05/25 01:59:01;;;;;;;11.98;6.38;;;;;;;;;;10440131;28;20053;-68
2022/05/25 02:04:20;;;;;;;9.77;6.30;;;;;;;;;;10437947;28;20049;-68
2022/05/25 02:10:01;;;;;;;10.20;6.40;;;;;;;;;;10438102;28;20041;-69
2022/05/25 02:15:12;;;;;;;7.78;5.85;;;;;;;;;;10436400;28;20058;-68
2022/05/25 02:20:24;;;;;;;11.98;6.97;;;;;;;;;;10411006;28;20280;-67
2022/05/25 02:25:30;;;;;;;15.70;7.25;;;;;;;;;;10436007;28;20428;-68
2022/05/25 02:30:37;;;;;;;10.10;6.85;;;;;;;;;;10451693;28;20347;-68
2022/05/25 02:35:44;;;;;;;10.70;6.47;;;;;;;;;;10445859;28;20048;-67
2022/05/25 02:40:46;;;;;;;17.75;7.85;;;;;;;;;;10437634;28;20046;-68
2022/05/25 02:45:49;;;;;;;17.17;8.15;;;;;;;;;;10437218;28;20049;-68
2022/05/25 02:50:52;;;;;;;13.27;6.22;;;;;;;;;;10437000;28;20087;-68
2022/05/25 02:55:54;;;;;;;14.27;7.20;;;;;;;;;;10435553;28;20087;-67
2022/05/25 03:00:57;;;;;;;15.57;7.03;;;;;;;;;;10437014;28;20072;-67
2022/05/25 03:06:01;;;;;;;12.48;6.78;;;;;;;;;;10435483;28;20041;-68
2022/05/25 03:11:04;;;;;;;16.20;7.03;;;;;;;;;;10436620;28;20048;-68
2022/05/25 03:16:08;;;;;;;13.45;6.93;;;;;;;;;;10432859;28;20056;-68
2022/05/25 03:21:12;;;;;;;22.00;7.60;;;;;;;;;;10435597;28;20259;-68
2022/05/25 03:26:16;;;;;;;12.38;7.45;;;;;;;;;;10431713;28;20048;-68
2022/05/25 03:31:18;;;;;;;14.68;7.65;;;;;;;;;;10434984;28;21336;-67
2022/05/25 03:36:21;;;;;;;20.58;8.32;;;;;;;;;;10433829;28;20049;-67
2022/05/25 03:41:24;;;;;;;19.87;9.53;;;;;;;;;;10433708;28;20045;-68
2022/05/25 03:46:26;;;;;;;17.38;9.30;;;;;;;;;;10433238;28;20356;-69
2022/05/25 03:51:30;;;;;;;16.67;8.55;;;;;;;;;;10433544;28;20095;-69
2022/05/25 03:56:32;;;;;;;24.05;9.35;;;;;;;;;;10433658;28;20049;-68
2022/05/25 04:01:37;;;;;;;18.65;8.38;;;;;;;;;;10433275;28;20041;-71
2022/05/25 04:06:41;;;;;;;18.42;9.45;;;;;;;;;;10432948;28;20052;-68
2022/05/25 04:11:44;;;;;;;22.80;10.43;;;;;;;;;;10433820;28;20237;-68
2022/05/25 04:16:47;;;;;;;26.10;12.20;;;;;;;;;;10433520;28;20076;-68
2022/05/25 04:21:51;;;;;;;29.80;12.90;;;;;;;;;;10433695;28;20042;-68
2022/05/25 04:26:53;;;;;;;25.65;11.23;;;;;;;;;;10433266;28;20107;-69
2022/05/25 04:31:55;;;;;;;25.35;12.27;;;;;;;;;;10433889;28;20041;-69
2022/05/25 04:37:48;;;;;;;24.93;11.07;;;;;;;;;;10434225;28;20113;-70
2022/05/25 04:42:22;;;;;;;20.27;9.73;;;;;;;;;;10434216;28;20037;-69
2022/05/25 04:47:24;;;;;;;29.50;9.20;;;;;;;;;;10433828;28;20061;-69
2022/05/25 04:52:28;;;;;;;21.60;10.20;;;;;;;;;;10432795;28;20033;-69
2022/05/25 04:57:31;;;;;;;22.77;9.25;;;;;;;;;;10432401;28;20285;-69
2022/05/25 05:02:34;;;;;;;18.40;9.10;;;;;;;;;;10432085;28;20087;-69
2022/05/25 05:07:39;;;;;;;19.90;9.50;;;;;;;;;;10433007;28;20045;-69
2022/05/25 05:12:42;;;;;;;22.90;8.70;;;;;;;;;;10438890;28;20301;-69
2022/05/25 05:17:45;;;;;;;21.27;8.67;;;;;;;;;;10429169;28;20057;-69
2022/05/25 05:22:49;;;;;;;24.88;10.82;;;;;;;;;;10431617;28;20049;-69
2022/05/25 05:27:51;;;;;;;19.17;8.38;;;;;;;;;;10424507;28;20053;-69
2022/05/25 05:32:54;;;;;;;13.93;6.80;;;;;;;;;;10429449;28;20068;-69
2022/05/25 05:37:58;;;;;;;16.20;6.63;;;;;;;;;;10431066;28;20054;-69
2022/05/25 05:43:03;;;;;;;12.85;6.30;;;;;;;;;;10430409;28;20054;-68
2022/05/25 05:48:10;;;;;;;18.27;7.50;;;;;;;;;;10430845;28;20083;-68
2022/05/25 05:53:15;;;;;;;17.10;6.15;;;;;;;;;;10432765;28;20042;-68
2022/05/25 05:58:17;;;;;;;18.88;7.00;;;;;;;;;;10404577;28;20050;-70
2022/05/25 06:03:20;;;;;;;12.23;5.68;;;;;;;;;;10431241;28;20247;-70
2022/05/25 06:08:24;;;;;;;14.30;6.97;;;;;;;;;;10430365;28;20060;-69
2022/05/25 06:13:27;;;;;;;22.92;6.45;;;;;;;;;;10429575;28;20095;-68
2022/05/25 06:23:51;;;;;;;8.90;5.18;;;;;;;;;;10434076;28;20049;-68
2022/05/25 06:28:53;;;;;;;10.85;4.85;;;;;;;;;;10436886;28;20041;-68
2022/05/25 06:33:56;;;;;;;8.48;5.28;;;;;;;;;;10437239;28;20049;-69
2022/05/25 06:38:59;;;;;;;7.25;4.80;;;;;;;;;;10433635;28;20061;-68
2022/05/25 06:44:02;;;;;;;14.13;6.18;;;;;;;;;;10437513;28;20057;-69
2022/05/25 06:49:04;;;;;;;15.65;6.30;;;;;;;;;;10436026;28;20084;-69
2022/05/25 06:54:08;;;;;;;12.55;5.90;;;;;;;;;;10436407;28;20041;-69
2022/05/25 06:59:11;;;;;;;12.82;6.25;;;;;;;;;;10436830;28;20061;-68
2022/05/25 07:04:13;;;;;;;14.15;6.88;;;;;;;;;;10437381;28;20225;-68
2022/05/25 07:09:17;;;;;;;16.40;7.32;;;;;;;;;;10436729;28;20045;-68
2022/05/25 07:14:20;;;;;;;21.45;9.77;;;;;;;;;;10435928;28;20057;-69
2022/05/25 07:19:23;;;;;;;25.33;12.13;;;;;;;;;;10435897;28;20045;-69
2022/05/25 07:24:26;;;;;;;33.58;14.90;;;;;;;;;;10437257;28;20041;-69
2022/05/25 07:29:29;;;;;;;38.15;14.23;;;;;;;;;;10436039;28;20056;-69
2022/05/25 07:34:35;;;;;;;27.40;12.35;;;;;;;;;;10436355;28;20041;-68
2022/05/25 07:39:42;;;;;;;29.38;12.68;;;;;;;;;;10449732;28;20128;-68
2022/05/25 07:44:49;;;;;;;20.13;8.90;;;;;;;;;;10450325;28;20038;-69
2022/05/25 07:49:52;;;;;;;17.15;8.18;;;;;;;;;;10423386;28;20049;-68
2022/05/25 07:54:56;;;;;;;15.27;7.97;;;;;;;;;;10435676;28;20228;-68
2022/05/25 07:59:59;;;;;;;16.60;7.93;;;;;;;;;;10433135;28;20045;-69
2022/05/25 08:10:31;;;;;;;17.23;8.10;;;;;;;;;;10448444;28;20060;-69
2022/05/25 08:15:34;;;;;;;14.05;7.80;;;;;;;;;;10432999;28;20061;-68
2022/05/25 08:20:37;;;;;;;14.95;7.10;;;;;;;;;;10433485;28;20328;-68
2022/05/25 08:25:42;;;;;;;18.10;8.75;;;;;;;;;;10432051;28;20049;-68
2022/05/25 08:30:45;;;;;;;12.57;6.90;;;;;;;;;;10433303;28;20052;-69
2022/05/25 08:35:47;;;;;;;11.77;6.90;;;;;;;;;;10433347;28;20049;-68
2022/05/25 08:40:52;;;;;;;16.05;7.75;;;;;;;;;;10432600;28;20208;-69
2022/05/25 08:45:58;;;;;;;12.50;6.93;;;;;;;;;;10432323;28;20356;-68
2022/05/25 08:51:05;;;;;;;15.93;7.30;;;;;;;;;;10423385;28;20213;-68
2022/05/25 08:56:19;;;;;;;9.50;6.55;;;;;;;;;;10405678;28;20049;-69
2022/05/25 09:01:28;;;;;;;13.00;7.22;;;;;;;;;;10438970;28;20085;-69
2022/05/25 09:06:42;;;;;;;11.63;6.80;;;;;;;;;;10446036;28;20049;-68
2022/05/25 09:11:50;;;;;;;15.25;7.63;;;;;;;;;;10445504;28;20053;-68
2022/05/25 09:16:55;;;;;;;16.17;7.53;;;;;;;;;;10434132;28;20099;-69
2022/05/25 09:22:01;;;;;;;12.82;6.82;;;;;;;;;;10430251;28;20359;-68
2022/05/25 09:27:07;;;;;;;13.25;6.95;;;;;;;;;;10444782;28;20116;-69
2022/05/25 09:32:28;;;;;;;11.75;6.72;;;;;;;;;;10444403;28;20237;-69
2022/05/25 09:37:35;;;;;;;11.95;7.53;;;;;;;;;;10430341;28;20057;-68
2022/05/25 09:42:42;;;;;;;14.60;7.13;;;;;;;;;;10432177;28;20053;-68
2022/05/25 09:47:46;;;;;;;13.20;7.25;;;;;;;;;;10430743;28;20056;-69
2022/05/25 09:52:52;;;;;;;10.55;6.25;;;;;;;;;;10430166;28;20346;-68
2022/05/25 09:58:00;;;;;;;11.95;6.63;;;;;;;;;;10448635;28;20041;-68
2022/05/25 10:03:07;;;;;;;10.55;6.50;;;;;;;;;;10439498;28;20049;-68
2022/05/25 10:08:16;;;;;;;13.50;7.65;;;;;;;;;;10451931;28;20255;-68
2022/05/25 10:13:23;;;;;;;12.77;6.85;;;;;;;;;;10450939;28;20057;-68
2022/05/25 10:18:39;;;;;;;11.73;6.68;;;;;;;;;;10451404;28;20048;-68
2022/05/25 10:23:44;;;;;;;12.05;6.65;;;;;;;;;;10450714;28;20041;-69
2022/05/25 10:28:55;;;;;;;16.50;6.55;;;;;;;;;;10436880;28;20030;-69
2022/05/25 10:39:35;;;;;;;14.30;6.55;;;;;;;;;;10435571;28;20049;-68
2022/05/25 10:44:51;;;;;;;12.75;6.45;;;;;;;;;;10437441;28;20069;-68
2022/05/25 10:49:53;;;;;;;13.75;6.75;;;;;;;;;;10448115;28;20042;-68
2022/05/25 10:54:56;;;;;;;14.18;7.43;;;;;;;;;;10437831;28;20099;-68
2022/05/25 11:00:04;;;;;;;11.32;6.90;;;;;;;;;;10437122;28;20052;-69
2022/05/25 11:05:27;;;;;;;10.95;6.97;;;;;;;;;;10450909;28;20049;-69
2022/05/25 11:10:41;;;;;;;15.60;7.18;;;;;;;;;;10449042;28;20057;-68
2022/05/25 11:15:49;;;;;;;;;;;;;;;;;;10437081;28;20053;-69
2022/05/25 11:21:08;;;;;;;11.18;7.15;;;;;;;;;;10433791;28;19995;-69
2022/05/25 11:26:28;;;;;;;13.65;7.25;;;;;;;;;;10449385;28;20328;-69
2022/05/25 11:31:36;;;;;;;12.30;7.25;;;;;;;;;;10446311;28;20037;-69
2022/05/25 11:36:57;;;;;;;9.95;7.10;;;;;;;;;;10449256;28;20214;-69
2022/05/25 11:42:09;;;;;;;15.20;8.43;;;;;;;;;;10448912;28;20056;-69
2022/05/25 11:47:29;;;;;;;13.98;7.47;;;;;;;;;;10449032;28;20048;-69
2022/05/25 11:52:56;;;;;;;11.05;7.25;;;;;;;;;;10448479;28;20336;-70
2022/05/25 11:58:16;;;;;;;9.77;6.88;;;;;;;;;;10434406;28;20053;-69
2022/05/25 12:03:50;;;;;;;10.02;6.72;;;;;;;;;;10433445;28;20045;-70
2022/05/25 12:09:09;;;;;;;10.80;7.22;;;;;;;;;;10448989;28;20324;-69
2022/05/25 12:14:34;;;;;;;9.77;6.60;;;;;;;;;;10443630;28;20053;-69
2022/05/25 12:19:41;;;;;;;17.85;7.72;;;;;;;;;;10447569;28;20045;-71
2022/05/25 12:24:45;;;;;;;22.60;8.00;;;;;;;;;;10446874;28;20080;-68
2022/05/25 12:29:51;;;;;;;13.80;7.47;;;;;;;;;;10432750;28;20045;-67
2022/05/25 12:34:56;;;;;;;15.52;7.57;;;;;;;;;;10446147;28;20041;-69
2022/05/25 12:40:02;;;;;;;16.48;10.02;;;;;;;;;;10432447;28;20407;-69
2022/05/25 12:50:41;;;;;;;12.70;7.13;;;;;;;;;;10445606;28;20048;-69
2022/05/25 12:55:54;;;;;;;16.35;9.15;;;;;;;;;;10432092;28;20045;-70
2022/05/25 13:01:04;;;;;;;12.83;7.60;;;;;;;;;;10445959;28;20041;-68
2022/05/25 13:06:09;;;;;;;10.18;6.45;;;;;;;;;;10445047;28;20052;-69
2022/05/25 13:11:30;;;;;;;11.13;6.57;;;;;;;;;;10432611;28;20280;-70
2022/05/25 13:16:53;;;;;;;11.35;6.65;;;;;;;;;;10404196;28;20041;-69
2022/05/25 13:22:23;;;;;;;10.70;6.93;;;;;;;;;;10432956;28;20035;-70
2022/05/25 13:27:56;;;;;;;14.52;7.47;;;;;;;;;;10431388;28;20065;-71
2022/05/25 13:33:00;;;;;;;14.25;8.07;;;;;;;;;;10435867;28;20340;-68
2022/05/25 13:38:13;;;;;;;11.50;7.60;;;;;;;;;;10439394;28;20061;-69
2022/05/25 13:43:21;;;;;;;12.00;7.70;;;;;;;;;;10451814;28;20046;-69
2022/05/25 13:48:24;;;;;;;12.65;7.28;;;;;;;;;;10434731;28;20107;-69
2022/05/25 13:53:33;;;;;;;19.88;8.80;;;;;;;;;;10428885;28;20053;-68
2022/05/25 13:58:41;;;;;;;13.13;7.93;;;;;;;;;;10454489;28;20272;-68
2022/05/25 14:03:48;;;;;;;15.02;7.93;;;;;;;;;;10452464;28;20041;-68
2022/05/25 14:14:24;;;;;;;14.38;8.93;;;;;;;;;;10447692;28;20076;-70
2022/05/25 14:19:29;;;;;;;10.63;7.63;;;;;;;;;;10439748;28;20053;-67
2022/05/25 14:24:35;;;;;;;14.65;9.02;;;;;;;;;;10435617;28;20060;-68
2022/05/25 14:29:40;;;;;;;19.65;8.55;;;;;;;;;;10437426;28;20037;-68
2022/05/25 14:34:44;;;;;;;13.73;8.15;;;;;;;;;;10436927;28;20298;-69
2022/05/25 14:39:48;;;;;;;12.50;6.60;;;;;;;;;;10436131;28;20053;-69
2022/05/25 14:44:55;;;;;;;5.55;3.65;;;;;;;;;;10436176;28;20041;-69
2022/05/25 14:50:11;;;;;;;10.60;4.90;;;;;;;;;;10448819;28;20045;-72
2022/05/25 14:55:23;;;;;;;7.65;4.05;;;;;;;;;;10431872;28;20360;-68
2022/05/25 15:00:25;;;;;;;7.32;3.85;;;;;;;;;;10448569;28;20037;-72
2022/05/25 15:05:30;;;;;;;6.82;3.95;;;;;;;;;;10436273;28;20041;-68
2022/05/25 15:10:36;;;;;;;7.65;3.83;;;;;;;;;;10437548;28;20053;-68
2022/05/25 15:21:05;;;;;;;6.13;3.65;;;;;;;;;;10449964;28;20038;-70
2022/05/25 15:26:17;;;;;;;7.07;3.92;;;;;;;;;;10448017;28;20064;-68
2022/05/25 15:31:19;;;;;;;5.82;3.08;;;;;;;;;;10446426;28;20057;-69
2022/05/25 15:36:22;;;;;;;4.68;2.50;;;;;;;;;;10426052;28;20056;-71
2022/05/25 15:41:26;;;;;;;;;;;;;;;;;;10431813;28;20375;-71
2022/05/25 15:46:30;;;;;;;3.83;2.87;;;;;;;;;;10434156;28;19924;-70
2022/05/25 15:51:34;;;;;;;3.60;2.20;;;;;;;;;;10433690;28;20041;-71
2022/05/25 15:56:38;;;;;;;4.70;1.80;;;;;;;;;;10432794;28;20049;-69
2022/05/25 16:01:41;;;;;;;3.70;1.75;;;;;;;;;;10393640;28;20585;-70
2022/05/25 16:06:44;;;;;;;2.40;2.00;;;;;;;;;;10425336;28;20049;-72
2022/05/25 16:11:51;;;;;;;5.60;2.07;;;;;;;;;;10434471;28;20099;-72
2022/05/25 16:16:54;;;;;;;3.40;2.00;;;;;;;;;;10431901;28;20061;-68
2022/05/25 16:21:57;;;;;;;8.30;2.13;;;;;;;;;;10434228;28;20056;-69
2022/05/25 16:27:02;;;;;;;3.92;2.30;;;;;;;;;;10431581;28;20042;-68
2022/05/25 16:32:10;;;;;;;5.03;2.08;;;;;;;;;;10429718;28;20053;-69
2022/05/25 16:37:12;;;;;;;4.70;1.80;;;;;;;;;;10432782;28;20049;-68
2022/05/25 16:42:16;;;;;;;3.88;2.10;;;;;;;;;;10424882;28;20244;-68
2022/05/25 16:47:19;;;;;;;1.75;1.63;;;;;;;;;;10421312;28;20055;-69
2022/05/25 16:52:21;;;;;;;5.47;1.85;;;;;;;;;;10418896;28;20062;-70
2022/05/25 16:57:25;;;;;;;4.38;1.80;;;;;;;;;;10400385;28;20040;-69
2022/05/25 17:02:28;;;;;;;3.38;1.90;;;;;;;;;;10431034;28;20045;-69
2022/05/25 17:07:30;;;;;;;3.33;1.90;;;;;;;;;;10429888;28;20048;-69
2022/05/25 17:12:34;;;;;;;4.55;2.30;;;;;;;;;;10432547;28;20260;-69
2022/05/25 17:17:37;;;;;;;3.40;2.25;;;;;;;;;;10433077;28;20073;-69
2022/05/25 17:22:39;;;;;;;6.10;2.50;;;;;;;;;;10430699;28;20198;-69
2022/05/25 17:27:43;;;;;;;4.07;2.30;;;;;;;;;;10431720;28;20037;-68
2022/05/25 17:32:45;;;;;;;2.75;2.53;;;;;;;;;;10420917;28;20046;-67
2022/05/25 17:43:09;;;;;;;3.92;3.13;;;;;;;;;;10441988;28;20042;-69
2022/05/25 17:48:12;;;;;;;4.93;3.50;;;;;;;;;;10424285;28;20042;-66
2022/05/25 17:53:14;;;;;;;6.40;4.35;;;;;;;;;;10424025;28;20294;-68
2022/05/25 17:58:18;;;;;;;6.65;4.05;;;;;;;;;;10424407;28;20045;-69
2022/05/25 18:03:20;;;;;;;4.97;3.73;;;;;;;;;;10430863;28;20057;-69
2022/05/25 18:08:23;;;;;;;6.72;3.38;;;;;;;;;;10418810;28;20045;-68
2022/05/25 18:13:27;;;;;;;7.43;3.70;;;;;;;;;;10427495;28;20272;-69
2022/05/25 18:18:32;;;;;;;6.43;3.65;;;;;;;;;;10446833;28;20041;-68
2022/05/25 18:23:35;;;;;;;5.80;3.83;;;;;;;;;;10437334;28;20049;-69
2022/05/25 18:28:39;;;;;;;10.38;3.65;;;;;;;;;;10436897;28;20053;-69
2022/05/25 18:33:41;;;;;;;6.70;4.37;;;;;;;;;;10437994;28;20057;-69
2022/05/25 18:38:44;;;;;;;4.60;3.22;;;;;;;;;;10435402;28;20041;-69
2022/05/25 18:43:48;;;;;;;7.15;3.25;;;;;;;;;;10436062;28;20378;-68
2022/05/25 18:48:52;;;;;;;5.65;3.67;;;;;;;;;;10423824;28;20045;-67
2022/05/25 18:53:54;;;;;;;5.07;3.15;;;;;;;;;;10411961;28;20053;-69
2022/05/25 18:58:58;;;;;;;7.30;3.78;;;;;;;;;;10417697;28;20053;-69
2022/05/25 19:04:01;;;;;;;5.65;3.90;;;;;;;;;;10433164;28;20234;-68
2022/05/25 19:09:04;;;;;;;4.60;1.50;;;;;;;;;;10434416;28;20057;-69
2022/05/25 19:14:09;;;;;;;2.58;1.50;;;;;;;;;;10435039;28;20113;-70
2022/05/25 19:19:12;;;;;;;1.58;1.10;;;;;;;;;;10434287;28;20045;-70
2022/05/25 19:24:19;;;;;;;3.03;1.75;;;;;;;;;;10435170;28;20037;-68
2022/05/25 19:29:23;;;;;;;3.63;1.38;;;;;;;;;;10445110;28;20554;-67
2022/05/25 19:34:25;;;;;;;1.60;1.50;;;;;;;;;;10420680;28;20041;-69
2022/05/25 19:39:31;;;;;;;2.55;1.65;;;;;;;;;;10413813;28;20379;-69
2022/05/25 19:44:41;;;;;;;2.25;1.80;;;;;;;;;;10429762;28;20045;-68
2022/05/25 19:55:05;;;;;;;7.28;2.13;;;;;;;;;;10423544;28;20057;-69
2022/05/25 20:00:12;;;;;;;2.90;1.95;;;;;;;;;;10427487;28;20048;-69
2022/05/25 20:05:16;;;;;;;5.47;2.20;;;;;;;;;;10446163;28;20271;-70
2022/05/25 20:10:18;;;;;;;5.68;3.40;;;;;;;;;;10431813;28;20344;-69
2022/05/25 20:15:24;;;;;;;3.67;2.53;;;;;;;;;;10433382;28;20049;-70
2022/05/25 20:20:27;;;;;;;3.97;2.92;;;;;;;;;;10414688;28;20041;-69
2022/05/25 20:25:29;;;;;;;3.05;2.75;;;;;;;;;;10393585;28;20064;-69
2022/05/25 20:30:33;;;;;;;7.72;3.17;;;;;;;;;;10431778;28;20041;-68
2022/05/25 20:35:36;;;;;;;12.27;6.78;;;;;;;;;;10431430;28;20042;-68
2022/05/25 20:40:38;;;;;;;7.35;3.90;;;;;;;;;;10431034;28;20041;-67
2022/05/25 20:45:42;;;;;;;7.25;4.63;;;;;;;;;;10432119;28;20224;-70
2022/05/25 20:50:44;;;;;;;13.90;8.00;;;;;;;;;;10431393;28;20053;-69
2022/05/25 20:55:46;;;;;;;7.75;4.78;;;;;;;;;;10431710;28;20041;-68
2022/05/25 21:00:51;;;;;;;6.13;3.97;;;;;;;;;;10430013;28;20079;-69
2022/05/25 21:05:54;;;;;;;7.38;4.10;;;;;;;;;;10430671;28;20057;-67
2022/05/25 21:11:00;;;;;;;7.03;3.67;;;;;;;;;;10431591;28;20217;-68
2022/05/25 21:16:04;;;;;;;5.55;3.80;;;;;;;;;;10433942;28;20096;-69
2022/05/25 21:21:07;;;;;;;7.97;4.43;;;;;;;;;;10393847;28;20057;-67
2022/05/25 21:26:09;;;;;;;5.32;3.92;;;;;;;;;;10427957;28;20065;-68
2022/05/25 21:36:33;;;;;;;8.25;4.10;;;;;;;;;;10444721;28;20057;-68
2022/05/25 21:41:35;;;;;;;5.13;3.55;;;;;;;;;;10429713;28;20044;-68
2022/05/25 21:51:58;;;;;;;7.95;3.83;;;;;;;;;;10443841;28;20060;-68
2022/05/25 21:57:00;;;;;;;6.20;3.65;;;;;;;;;;10438883;28;20041;-67
2022/05/25 22:02:06;;;;;;;;;;;;;;;;;;10436937;28;20045;-67
2022/05/25 22:07:09;;;;;;;12.20;4.28;;;;;;;;;;10422290;28;19979;-68
2022/05/25 22:12:15;;;;;;;6.55;3.55;;;;;;;;;;10439426;28;20053;-67
2022/05/25 22:17:19;;;;;;;9.88;3.92;;;;;;;;;;10437080;28;20336;-67
2022/05/25 22:22:22;;;;;;;7.83;3.73;;;;;;;;;;10438399;28;20046;-67
2022/05/25 22:27:24;;;;;;;6.38;3.40;;;;;;;;;;10436363;28;20240;-66
2022/05/25 22:32:28;;;;;;;7.25;3.75;;;;;;;;;;10437506;28;20284;-67
2022/05/25 22:37:30;;;;;;;4.95;3.47;;;;;;;;;;10437960;28;20244;-65
2022/05/25 22:42:32;;;;;;;8.25;3.78;;;;;;;;;;10435430;28;20325;-68
2022/05/25 22:47:36;;;;;;;10.05;3.85;;;;;;;;;;10437073;28;20372;-67
2022/05/25 22:52:38;;;;;;;7.07;4.40;;;;;;;;;;10436865;28;20046;-67
2022/05/25 22:57:41;;;;;;;6.40;3.80;;;;;;;;;;10435935;28;20037;-68
2022/05/25 23:02:44;;;;;;;7.22;3.97;;;;;;;;;;10433859;28;20045;-67
2022/05/25 23:07:47;;;;;;;9.87;3.90;;;;;;;;;;10400094;28;20049;-68
2022/05/25 23:12:49;;;;;;;4.85;4.03;;;;;;;;;;10435500;28;20092;-67
2022/05/25 23:17:53;;;;;;;8.45;4.03;;;;;;;;;;10433112;28;20058;-67
2022/05/25 23:22:56;;;;;;;6.43;3.92;;;;;;;;;;10435265;28;20041;-67
2022/05/25 23:33:16;;;;;;;5.72;4.10;;;;;;;;;;10436275;28;20045;-67
2022/05/25 23:38:19;;;;;;;7.63;4.70;;;;;;;;;;10433626;28;20225;-67
2022/05/25 23:48:43;;;;;;;9.52;4.50;;;;;;;;;;10447089;28;20049;-67
2022/05/25 23:53:46;;;;;;;9.40;4.97;;;;;;;;;;10432657;28;20045;-66
2022/05/25 23:58:48;;;;;;;6.22;4.85;;;;;;;;;;10434019;28;20045;-66
